Time;durP1;ratioP1;P1;durP2;ratioP2;P2;SDS_P1;SDS_P2;PMS_P1;PMS_P2;Temp;Humidity;BMP_temperature;BMP_pressure;BME280_temperature;BME280_humidity;BME280_pressure;Samples;Min_cycle;Max_cycle;Signal;HPM_P1;HPM_P2
2022/01/10 00:00:12;;;;;;;36.72;23.50;;;;;;;;;;5010207;28;20061;-76
2022/01/10 00:02:39;;;;;;;71.68;37.58;;;;;;;;;;5010347;28;20053;-77
2022/01/10 00:05:05;;;;;;;69.18;35.15;;;;;;;;;;5010307;28;20448;-76
2022/01/10 00:07:31;;;;;;;56.58;40.78;;;;;;;;;;5010421;28;20033;-76
2022/01/10 00:09:57;;;;;;;34.80;23.40;;;;;;;;;;5009899;28;20044;-76
2022/01/10 00:12:23;;;;;;;40.20;29.38;;;;;;;;;;5010514;28;20381;-76
2022/01/10 00:14:49;;;;;;;29.02;20.80;;;;;;;;;;5009181;28;20038;-76
2022/01/10 00:17:15;;;;;;;29.83;19.05;;;;;;;;;;5010275;28;20044;-77
2022/01/10 00:19:41;;;;;;;26.95;17.45;;;;;;;;;;5009901;28;20044;-77
2022/01/10 00:22:08;;;;;;;26.10;17.98;;;;;;;;;;5024359;23;20437;-77
2022/01/10 00:24:35;;;;;;;35.92;24.88;;;;;;;;;;5010349;28;20073;-77
2022/01/10 00:27:01;;;;;;;28.42;20.48;;;;;;;;;;4995663;28;20045;-76
2022/01/10 00:29:27;;;;;;;30.10;22.40;;;;;;;;;;4990685;28;20479;-77
2022/01/10 00:31:53;;;;;;;37.97;26.48;;;;;;;;;;5009583;28;20030;-77
2022/01/10 00:34:19;;;;;;;42.25;31.13;;;;;;;;;;5010068;28;20101;-76
2022/01/10 00:36:45;;;;;;;28.98;19.63;;;;;;;;;;5010052;28;20034;-76
2022/01/10 00:39:12;;;;;;;31.30;19.92;;;;;;;;;;5010175;28;20469;-77
2022/01/10 00:41:38;;;;;;;39.67;28.83;;;;;;;;;;5003762;28;20124;-77
2022/01/10 00:44:04;;;;;;;49.13;36.03;;;;;;;;;;5007774;28;20390;-77
2022/01/10 00:46:30;;;;;;;50.00;32.38;;;;;;;;;;4998590;28;20037;-77
2022/01/10 00:48:56;;;;;;;46.38;28.98;;;;;;;;;;5013595;28;20030;-76
2022/01/10 00:51:23;;;;;;;42.28;25.38;;;;;;;;;;5013618;28;20042;-76
2022/01/10 00:53:50;;;;;;;29.33;19.52;;;;;;;;;;5013362;28;20357;-77
2022/01/10 00:56:17;;;;;;;31.52;20.98;;;;;;;;;;5013621;28;20380;-76
2022/01/10 00:58:43;;;;;;;30.73;20.30;;;;;;;;;;5013245;28;20079;-76
2022/01/10 01:01:09;;;;;;;26.83;17.58;;;;;;;;;;5013517;28;20423;-77
2022/01/10 01:03:35;;;;;;;23.65;15.20;;;;;;;;;;5012923;28;20079;-77
2022/01/10 01:06:01;;;;;;;27.13;16.20;;;;;;;;;;5013778;28;20026;-76
2022/01/10 01:08:29;;;;;;;25.30;17.13;;;;;;;;;;5013034;28;20029;-77
2022/01/10 01:13:39;;;;;;;21.10;14.15;;;;;;;;;;5012969;28;20073;-76
2022/01/10 01:24:02;;;;;;;35.78;22.85;;;;;;;;;;4988803;28;20081;-76
2022/01/10 01:26:28;;;;;;;26.63;18.80;;;;;;;;;;4988868;28;20057;-77
2022/01/10 01:28:54;;;;;;;27.85;18.35;;;;;;;;;;4993675;28;20421;-76
2022/01/10 01:31:20;;;;;;;28.38;19.05;;;;;;;;;;4992923;28;20039;-76
2022/01/10 01:33:47;;;;;;;26.02;16.77;;;;;;;;;;4986157;28;20022;-77
2022/01/10 01:36:13;;;;;;;40.92;24.73;;;;;;;;;;4992795;28;20038;-77
2022/01/10 01:38:40;;;;;;;41.85;25.73;;;;;;;;;;4993448;28;20033;-76
2022/01/10 01:43:46;;;;;;;89.25;50.08;;;;;;;;;;4993678;28;20041;-76
2022/01/10 01:46:12;;;;;;;62.40;35.05;;;;;;;;;;4992616;28;20377;-77
2022/01/10 01:48:38;;;;;;;47.58;26.50;;;;;;;;;;4993088;28;20030;-76
2022/01/10 01:51:04;;;;;;;48.30;29.58;;;;;;;;;;4992496;28;20033;-76
2022/01/10 01:53:30;;;;;;;62.33;37.08;;;;;;;;;;4993052;28;20615;-76
2022/01/10 01:55:57;;;;;;;30.05;19.80;;;;;;;;;;4992386;28;20389;-77
2022/01/10 01:58:24;;;;;;;39.63;24.95;;;;;;;;;;4985753;28;20035;-76
2022/01/10 02:00:51;;;;;;;40.58;24.95;;;;;;;;;;4992648;28;20038;-77
2022/01/10 02:03:17;;;;;;;29.25;19.40;;;;;;;;;;4992322;28;20491;-76
2022/01/10 02:05:43;;;;;;;32.45;20.38;;;;;;;;;;4988879;28;20117;-76
2022/01/10 02:08:09;;;;;;;30.55;20.15;;;;;;;;;;5004804;28;20038;-76
2022/01/10 02:10:35;;;;;;;28.13;19.35;;;;;;;;;;4992184;28;20038;-76
2022/01/10 02:13:01;;;;;;;35.28;23.75;;;;;;;;;;4992442;28;20042;-77
2022/01/10 02:18:21;;;;;;;31.30;20.95;;;;;;;;;;4953900;28;20693;-76
2022/01/10 02:20:47;;;;;;;31.88;21.02;;;;;;;;;;4979547;28;20038;-76
2022/01/10 02:23:14;;;;;;;39.17;24.17;;;;;;;;;;4972756;28;20266;-77
2022/01/10 02:25:40;;;;;;;35.10;23.80;;;;;;;;;;4982034;28;20022;-77
2022/01/10 02:28:06;;;;;;;45.10;30.65;;;;;;;;;;4976585;28;20050;-77
2022/01/10 02:30:32;;;;;;;44.10;28.20;;;;;;;;;;4979602;28;20035;-77
2022/01/10 02:33:00;;;;;;;37.13;24.75;;;;;;;;;;4992937;28;20545;-76
2022/01/10 02:35:33;;;;;;;44.10;27.80;;;;;;;;;;4991507;28;20022;-76
2022/01/10 02:38:00;;;;;;;52.53;34.33;;;;;;;;;;4992799;28;20042;-76
2022/01/10 02:40:28;;;;;;;66.30;42.08;;;;;;;;;;4991309;28;20030;-77
2022/01/10 02:42:54;;;;;;;43.88;30.38;;;;;;;;;;4983965;28;20166;-77
2022/01/10 02:45:20;;;;;;;39.35;26.98;;;;;;;;;;4977961;28;20037;-77
2022/01/10 02:47:47;;;;;;;38.53;24.17;;;;;;;;;;4991650;28;20042;-76
2022/01/10 02:50:14;;;;;;;42.45;26.02;;;;;;;;;;4990778;28;20018;-77
2022/01/10 02:52:40;;;;;;;40.70;27.67;;;;;;;;;;4979416;28;20038;-76
2022/01/10 02:55:06;;;;;;;39.08;26.85;;;;;;;;;;4991662;28;20109;-77
2022/01/10 02:57:34;;;;;;;37.13;26.17;;;;;;;;;;4987113;28;20356;-77
2022/01/10 03:00:03;;;;;;;40.58;27.17;;;;;;;;;;4990290;28;20437;-77
2022/01/10 03:02:33;;;;;;;36.58;24.90;;;;;;;;;;4989680;28;20050;-76
2022/01/10 03:04:59;;;;;;;36.33;24.95;;;;;;;;;;4986522;28;20046;-77
2022/01/10 03:07:25;;;;;;;36.63;26.85;;;;;;;;;;4990911;28;20050;-77
2022/01/10 03:09:51;;;;;;;42.63;27.08;;;;;;;;;;4990758;28;20030;-76
2022/01/10 03:12:18;;;;;;;49.15;32.42;;;;;;;;;;4991553;28;20502;-77
2022/01/10 03:14:44;;;;;;;36.38;25.10;;;;;;;;;;4990788;28;20030;-77
2022/01/10 03:17:10;;;;;;;42.60;29.55;;;;;;;;;;4984723;28;20218;-77
2022/01/10 03:19:37;;;;;;;33.47;23.10;;;;;;;;;;4975601;28;20026;-76
2022/01/10 03:22:04;;;;;;;45.20;30.73;;;;;;;;;;4990993;28;20481;-77
2022/01/10 03:24:30;;;;;;;39.45;26.05;;;;;;;;;;4990572;28;20069;-77
2022/01/10 03:26:56;;;;;;;41.80;28.55;;;;;;;;;;4990436;28;20039;-76
2022/01/10 03:29:22;;;;;;;49.92;32.55;;;;;;;;;;4990413;28;20097;-76
2022/01/10 03:31:48;;;;;;;40.60;28.27;;;;;;;;;;4988394;28;20066;-77
2022/01/10 03:34:14;;;;;;;38.03;24.50;;;;;;;;;;4972795;28;20066;-76
2022/01/10 03:36:41;;;;;;;31.67;22.48;;;;;;;;;;4989920;28;20042;-76
2022/01/10 03:39:07;;;;;;;28.45;19.90;;;;;;;;;;4989627;28;20034;-76
2022/01/10 03:41:33;;;;;;;31.55;22.38;;;;;;;;;;4997749;28;20073;-77
2022/01/10 03:43:59;;;;;;;33.03;23.73;;;;;;;;;;4990230;28;20081;-77
2022/01/10 03:46:27;;;;;;;31.92;20.45;;;;;;;;;;4981193;28;20030;-76
2022/01/10 03:48:53;;;;;;;30.23;20.25;;;;;;;;;;4989006;28;20037;-76
2022/01/10 03:51:19;;;;;;;37.88;25.27;;;;;;;;;;4990061;28;20038;-77
2022/01/10 03:53:45;;;;;;;27.35;18.25;;;;;;;;;;4989630;28;20433;-77
2022/01/10 03:56:11;;;;;;;31.50;20.90;;;;;;;;;;4990179;28;20034;-77
2022/01/10 03:58:37;;;;;;;34.85;22.70;;;;;;;;;;5004353;28;20035;-77
2022/01/10 04:01:04;;;;;;;34.55;21.42;;;;;;;;;;4988635;28;20034;-76
2022/01/10 04:03:31;;;;;;;38.55;23.33;;;;;;;;;;4989290;28;20433;-76
2022/01/10 04:05:58;;;;;;;51.90;26.80;;;;;;;;;;4990832;28;20029;-76
2022/01/10 04:08:24;;;;;;;37.97;22.77;;;;;;;;;;4980328;28;20031;-77
2022/01/10 04:10:51;;;;;;;37.72;23.88;;;;;;;;;;4984832;28;20026;-77
2022/01/10 04:13:18;;;;;;;35.63;23.00;;;;;;;;;;4989662;28;20039;-76
2022/01/10 04:15:44;;;;;;;36.50;23.48;;;;;;;;;;4989741;28;20452;-77
2022/01/10 04:18:10;;;;;;;32.92;23.08;;;;;;;;;;4989799;28;20092;-77
2022/01/10 04:20:36;;;;;;;32.45;21.08;;;;;;;;;;4984695;28;20030;-77
2022/01/10 04:23:02;;;;;;;35.00;21.85;;;;;;;;;;4948034;28;1214317;-76
2022/01/10 04:25:28;;;;;;;29.65;20.38;;;;;;;;;;4995400;28;20030;-77
2022/01/10 04:27:54;;;;;;;47.97;26.80;;;;;;;;;;4995300;28;20112;-76
2022/01/10 04:30:21;;;;;;;52.40;32.70;;;;;;;;;;4994397;28;20043;-76
2022/01/10 04:32:47;;;;;;;88.40;47.58;;;;;;;;;;4996753;28;20044;-77
2022/01/10 04:35:13;;;;;;;53.10;31.95;;;;;;;;;;5004105;28;20026;-78
2022/01/10 04:37:39;;;;;;;48.00;28.90;;;;;;;;;;5004047;28;20033;-76
2022/01/10 04:40:06;;;;;;;43.33;26.65;;;;;;;;;;4997570;28;20034;-76
2022/01/10 04:42:32;;;;;;;37.60;24.23;;;;;;;;;;4993272;28;20092;-77
2022/01/10 04:44:59;;;;;;;37.92;27.05;;;;;;;;;;4985881;28;20042;-77
2022/01/10 04:47:25;;;;;;;40.63;26.13;;;;;;;;;;5013831;28;20038;-77
2022/01/10 04:52:19;;;;;;;50.80;30.02;;;;;;;;;;4994310;28;20046;-76
2022/01/10 04:54:45;;;;;;;66.38;38.60;;;;;;;;;;4993458;28;20030;-76
2022/01/10 04:57:11;;;;;;;55.47;33.00;;;;;;;;;;4994236;28;20065;-77
2022/01/10 04:59:37;;;;;;;49.95;32.35;;;;;;;;;;4983436;28;20043;-77
2022/01/10 05:02:04;;;;;;;56.22;35.65;;;;;;;;;;4995984;28;20117;-76
2022/01/10 05:04:30;;;;;;;41.10;26.52;;;;;;;;;;5010797;28;20030;-77
2022/01/10 05:06:56;;;;;;;37.55;25.98;;;;;;;;;;4999137;28;20075;-77
2022/01/10 05:09:22;;;;;;;44.85;28.70;;;;;;;;;;4994842;28;20390;-77
2022/01/10 05:11:48;;;;;;;37.67;25.08;;;;;;;;;;4988380;28;20442;-76
2022/01/10 05:14:14;;;;;;;40.53;23.92;;;;;;;;;;4993123;28;20039;-77
2022/01/10 05:16:40;;;;;;;38.00;24.65;;;;;;;;;;5007098;28;20100;-76
2022/01/10 05:19:07;;;;;;;48.47;28.85;;;;;;;;;;5009731;28;20037;-77
2022/01/10 05:21:33;;;;;;;35.65;22.80;;;;;;;;;;4996487;28;20156;-76
2022/01/10 05:23:59;;;;;;;38.53;25.58;;;;;;;;;;5022381;28;20057;-77
2022/01/10 05:26:25;;;;;;;44.53;27.25;;;;;;;;;;5013631;28;20690;-77
2022/01/10 05:28:59;;;;;;;54.22;29.25;;;;;;;;;;5015481;28;20029;-77
2022/01/10 05:31:25;;;;;;;34.88;23.58;;;;;;;;;;5012557;28;20068;-77
2022/01/10 05:33:51;;;;;;;34.65;22.58;;;;;;;;;;5012436;28;20764;-77
2022/01/10 05:36:17;;;;;;;31.38;21.55;;;;;;;;;;5013258;28;20102;-77
2022/01/10 05:38:44;;;;;;;39.30;22.95;;;;;;;;;;5012746;28;20052;-76
2022/01/10 05:41:10;;;;;;;30.60;19.40;;;;;;;;;;5012862;28;20882;-77
2022/01/10 05:43:36;;;;;;;39.00;23.52;;;;;;;;;;5004229;28;20034;-77
2022/01/10 05:46:06;;;;;;;35.47;22.17;;;;;;;;;;5010876;28;20029;-77
2022/01/10 05:48:33;;;;;;;36.17;24.88;;;;;;;;;;5012743;28;20384;-77
2022/01/10 05:51:00;;;;;;;37.97;23.92;;;;;;;;;;5027342;28;20058;-77
2022/01/10 05:53:26;;;;;;;45.83;27.58;;;;;;;;;;5012468;28;20042;-77
2022/01/10 05:55:52;;;;;;;34.08;21.02;;;;;;;;;;5012082;28;20072;-76
2022/01/10 05:58:18;;;;;;;30.23;21.33;;;;;;;;;;5019222;28;20079;-77
2022/01/10 06:00:44;;;;;;;32.00;20.77;;;;;;;;;;5025950;28;20053;-76
2022/01/10 06:03:10;;;;;;;31.73;20.05;;;;;;;;;;5027460;28;20084;-76
2022/01/10 06:05:36;;;;;;;43.97;26.73;;;;;;;;;;5012243;28;20068;-77
2022/01/10 06:08:04;;;;;;;28.92;19.52;;;;;;;;;;5012888;28;20042;-77
2022/01/10 06:10:30;;;;;;;29.75;19.70;;;;;;;;;;5011772;28;20116;-77
2022/01/10 06:12:57;;;;;;;40.17;24.75;;;;;;;;;;5012666;28;20033;-76
2022/01/10 06:15:23;;;;;;;40.92;22.05;;;;;;;;;;5004051;28;20042;-76
2022/01/10 06:17:50;;;;;;;49.33;26.45;;;;;;;;;;5004244;28;20468;-77
2022/01/10 06:20:16;;;;;;;60.42;34.03;;;;;;;;;;5005674;28;20038;-76
2022/01/10 06:22:42;;;;;;;60.38;37.45;;;;;;;;;;5014143;28;20388;-77
2022/01/10 06:25:09;;;;;;;80.93;46.22;;;;;;;;;;5030220;28;20108;-77
2022/01/10 06:27:35;;;;;;;66.60;39.40;;;;;;;;;;5027015;28;20033;-76
2022/01/10 06:30:01;;;;;;;48.22;31.90;;;;;;;;;;5030339;28;20025;-77
2022/01/10 06:32:27;;;;;;;60.92;37.60;;;;;;;;;;5012393;28;20037;-76
2022/01/10 06:34:53;;;;;;;52.47;35.08;;;;;;;;;;5030640;28;20840;-77
2022/01/10 06:37:20;;;;;;;55.22;31.83;;;;;;;;;;5030618;28;20063;-76
2022/01/10 06:39:46;;;;;;;56.00;33.53;;;;;;;;;;5030949;28;20053;-76
2022/01/10 06:42:12;;;;;;;49.42;30.08;;;;;;;;;;5023447;28;20033;-77
2022/01/10 06:44:38;;;;;;;56.05;32.47;;;;;;;;;;5023792;28;20530;-77
2022/01/10 06:47:05;;;;;;;67.18;38.10;;;;;;;;;;5021098;28;20038;-77
2022/01/10 06:49:31;;;;;;;53.22;30.58;;;;;;;;;;5024247;28;20053;-76
2022/01/10 06:51:57;;;;;;;47.95;29.23;;;;;;;;;;5028199;28;20040;-76
2022/01/10 06:54:23;;;;;;;54.00;32.10;;;;;;;;;;5023772;28;20033;-77
2022/01/10 06:56:49;;;;;;;51.70;34.08;;;;;;;;;;5021331;28;20040;-76
2022/01/10 06:59:15;;;;;;;51.05;29.55;;;;;;;;;;5019269;28;20061;-77
2022/01/10 07:01:41;;;;;;;52.97;32.78;;;;;;;;;;5022639;28;20065;-76
2022/01/10 07:04:07;;;;;;;65.28;38.08;;;;;;;;;;5020874;28;20105;-77
2022/01/10 07:06:33;;;;;;;54.65;35.00;;;;;;;;;;5026364;28;20500;-77
2022/01/10 07:08:59;;;;;;;44.80;27.20;;;;;;;;;;5018216;28;20100;-77
2022/01/10 07:11:25;;;;;;;49.53;29.33;;;;;;;;;;5022356;28;20037;-76
2022/01/10 07:13:52;;;;;;;51.70;31.45;;;;;;;;;;5025149;28;20033;-77
2022/01/10 07:16:18;;;;;;;45.50;29.17;;;;;;;;;;5026533;28;20033;-77
2022/01/10 07:18:44;;;;;;;40.40;26.85;;;;;;;;;;5024556;28;20041;-76
2022/01/10 07:21:11;;;;;;;43.92;29.63;;;;;;;;;;5019565;28;20531;-77
2022/01/10 07:23:37;;;;;;;51.40;32.42;;;;;;;;;;5025137;28;20560;-77
2022/01/10 07:26:03;;;;;;;37.55;23.85;;;;;;;;;;5019779;28;20092;-77
2022/01/10 07:28:29;;;;;;;42.75;28.15;;;;;;;;;;5023240;28;20083;-76
2022/01/10 07:30:55;;;;;;;48.03;29.75;;;;;;;;;;5029430;28;20438;-77
2022/01/10 07:33:21;;;;;;;37.15;22.58;;;;;;;;;;5026016;28;20043;-77
2022/01/10 07:35:47;;;;;;;35.22;24.08;;;;;;;;;;5028778;28;20472;-77
2022/01/10 07:38:13;;;;;;;36.08;24.58;;;;;;;;;;5030444;28;20033;-77
2022/01/10 07:40:39;;;;;;;37.00;24.30;;;;;;;;;;5029326;28;20037;-77
2022/01/10 07:43:05;;;;;;;36.55;24.10;;;;;;;;;;5029971;28;20045;-77
2022/01/10 07:45:31;;;;;;;49.10;29.30;;;;;;;;;;5024290;28;20140;-77
2022/01/10 07:47:57;;;;;;;52.00;32.17;;;;;;;;;;5025483;28;20030;-77
2022/01/10 07:50:23;;;;;;;37.45;24.73;;;;;;;;;;5030020;28;20041;-76
2022/01/10 07:52:49;;;;;;;40.53;24.90;;;;;;;;;;5028784;28;20029;-77
2022/01/10 07:55:15;;;;;;;47.67;29.17;;;;;;;;;;5030005;28;20087;-77
2022/01/10 07:57:41;;;;;;;35.38;23.92;;;;;;;;;;5022630;28;20032;-77
2022/01/10 08:00:08;;;;;;;40.58;25.73;;;;;;;;;;5018349;28;20034;-77
2022/01/10 08:02:34;;;;;;;34.97;22.42;;;;;;;;;;5027099;28;20295;-77
2022/01/10 08:05:00;;;;;;;32.00;20.42;;;;;;;;;;5029904;28;20563;-77
2022/01/10 08:07:26;;;;;;;32.75;21.30;;;;;;;;;;5023939;28;20029;-77
2022/01/10 08:09:52;;;;;;;29.80;20.05;;;;;;;;;;5021785;28;20026;-77
2022/01/10 08:12:18;;;;;;;27.50;18.63;;;;;;;;;;5030101;28;20044;-77
2022/01/10 08:14:44;;;;;;;30.98;20.67;;;;;;;;;;5025809;28;20037;-77
2022/01/10 08:17:10;;;;;;;38.55;24.13;;;;;;;;;;5025156;28;20037;-77
2022/01/10 08:19:36;;;;;;;35.72;22.30;;;;;;;;;;5027230;28;20029;-77
2022/01/10 08:22:03;;;;;;;32.38;22.30;;;;;;;;;;5023566;28;20060;-77
2022/01/10 08:24:29;;;;;;;31.55;18.27;;;;;;;;;;5026838;28;20029;-77
2022/01/10 08:26:56;;;;;;;29.88;19.30;;;;;;;;;;5021047;28;20030;-76
2022/01/10 08:29:23;;;;;;;32.17;21.50;;;;;;;;;;5025388;28;20034;-77
2022/01/10 08:31:49;;;;;;;33.63;20.85;;;;;;;;;;5021081;28;20369;-77
2022/01/10 08:34:15;;;;;;;46.60;26.08;;;;;;;;;;5020496;28;20038;-77
2022/01/10 08:36:41;;;;;;;38.67;23.50;;;;;;;;;;5022696;28;20037;-77
2022/01/10 08:39:08;;;;;;;35.22;23.92;;;;;;;;;;5029836;28;20067;-77
2022/01/10 08:41:37;;;;;;;34.47;22.13;;;;;;;;;;5027760;28;20445;-77
2022/01/10 08:44:04;;;;;;;41.90;25.67;;;;;;;;;;5019792;28;20116;-77
2022/01/10 08:46:30;;;;;;;35.00;23.17;;;;;;;;;;5028839;28;20033;-77
2022/01/10 08:48:56;;;;;;;36.50;23.77;;;;;;;;;;5027760;28;20057;-77
2022/01/10 08:51:23;;;;;;;39.45;23.55;;;;;;;;;;5025236;28;20034;-77
2022/01/10 08:53:49;;;;;;;40.65;26.42;;;;;;;;;;5023115;28;20036;-76
2022/01/10 08:56:16;;;;;;;39.20;26.73;;;;;;;;;;5008949;28;20025;-76
2022/01/10 08:58:42;;;;;;;37.25;24.50;;;;;;;;;;5024001;28;20100;-77
2022/01/10 09:01:08;;;;;;;46.30;28.83;;;;;;;;;;5023509;28;20025;-77
2022/01/10 09:03:35;;;;;;;39.95;23.85;;;;;;;;;;5023798;28;20037;-77
2022/01/10 09:06:01;;;;;;;33.75;22.52;;;;;;;;;;5022475;28;20021;-77
2022/01/10 09:08:31;;;;;;;28.75;19.15;;;;;;;;;;5029281;28;20034;-77
2022/01/10 09:10:57;;;;;;;29.98;20.48;;;;;;;;;;5030247;28;20044;-76
2022/01/10 09:13:23;;;;;;;26.30;17.52;;;;;;;;;;5032325;28;20492;-77
2022/01/10 09:15:50;;;;;;;24.73;14.80;;;;;;;;;;5028840;28;20033;-77
2022/01/10 09:18:16;;;;;;;29.02;16.20;;;;;;;;;;5032437;28;20038;-76
2022/01/10 09:20:43;;;;;;;29.27;15.65;;;;;;;;;;5031245;28;20041;-76
2022/01/10 09:23:09;;;;;;;31.30;17.88;;;;;;;;;;5021070;28;20054;-77
2022/01/10 09:25:36;;;;;;;30.10;17.65;;;;;;;;;;5031266;28;20038;-77
2022/01/10 09:28:02;;;;;;;32.67;18.42;;;;;;;;;;5026022;28;20368;-76
2022/01/10 09:30:28;;;;;;;31.92;19.17;;;;;;;;;;5031509;28;20041;-77
2022/01/10 09:32:54;;;;;;;32.53;20.92;;;;;;;;;;5027367;28;20034;-77
2022/01/10 09:35:21;;;;;;;40.00;23.55;;;;;;;;;;5027224;28;20033;-77
2022/01/10 09:37:47;;;;;;;43.75;25.50;;;;;;;;;;5022871;28;20053;-77
2022/01/10 09:40:13;;;;;;;31.63;21.75;;;;;;;;;;5028724;28;20052;-77
2022/01/10 09:42:39;;;;;;;38.22;23.15;;;;;;;;;;5025280;28;20038;-76
2022/01/10 09:45:06;;;;;;;36.92;23.17;;;;;;;;;;5023744;28;20077;-77
2022/01/10 09:47:32;;;;;;;40.13;22.90;;;;;;;;;;5030135;28;20113;-77
2022/01/10 09:49:58;;;;;;;36.20;22.63;;;;;;;;;;5032122;28;20029;-77
2022/01/10 09:52:25;;;;;;;30.58;19.60;;;;;;;;;;5029337;28;20041;-76
2022/01/10 09:54:53;;;;;;;27.75;16.25;;;;;;;;;;5026530;28;20775;-77
2022/01/10 09:57:19;;;;;;;27.98;16.52;;;;;;;;;;5021906;28;20034;-77
2022/01/10 09:59:47;;;;;;;24.50;15.95;;;;;;;;;;5030999;28;20029;-77
2022/01/10 10:02:13;;;;;;;28.27;16.20;;;;;;;;;;5031221;28;20033;-77
2022/01/10 10:04:39;;;;;;;27.95;17.60;;;;;;;;;;5031579;28;20100;-76
2022/01/10 10:07:06;;;;;;;33.33;20.17;;;;;;;;;;5029935;28;20072;-77
2022/01/10 10:09:33;;;;;;;26.08;17.70;;;;;;;;;;5027415;28;20045;-77
2022/01/10 10:11:59;;;;;;;25.38;17.65;;;;;;;;;;5027407;28;20030;-77
2022/01/10 10:14:25;;;;;;;26.50;16.77;;;;;;;;;;5028643;28;20417;-77
2022/01/10 10:16:53;;;;;;;25.73;17.58;;;;;;;;;;5029829;28;20036;-77
2022/01/10 10:19:21;;;;;;;24.58;16.33;;;;;;;;;;5027297;28;20484;-77
2022/01/10 10:21:47;;;;;;;27.05;17.25;;;;;;;;;;5024616;28;20029;-77
2022/01/10 10:24:14;;;;;;;24.50;16.98;;;;;;;;;;5030493;28;20041;-76
2022/01/10 10:26:40;;;;;;;22.90;14.20;;;;;;;;;;5026677;28;20423;-76
2022/01/10 10:29:07;;;;;;;24.40;16.48;;;;;;;;;;5025158;28;21015;-77
2022/01/10 10:31:35;;;;;;;22.02;14.40;;;;;;;;;;5020855;28;20037;-77
2022/01/10 10:34:04;;;;;;;25.63;17.60;;;;;;;;;;5028418;28;20120;-76
2022/01/10 10:36:31;;;;;;;24.75;16.50;;;;;;;;;;5031654;28;20029;-77
2022/01/10 10:38:57;;;;;;;24.55;17.55;;;;;;;;;;5022668;28;20041;-77
2022/01/10 10:41:23;;;;;;;26.30;16.23;;;;;;;;;;5026297;28;20075;-76
2022/01/10 10:43:54;;;;;;;24.23;16.08;;;;;;;;;;5027535;28;20068;-76
2022/01/10 10:46:25;;;;;;;25.23;16.25;;;;;;;;;;5027650;28;20030;-77
2022/01/10 10:48:58;;;;;;;24.90;16.35;;;;;;;;;;5027605;28;20022;-77
2022/01/10 10:51:33;;;;;;;26.35;16.40;;;;;;;;;;5030624;28;20029;-77
2022/01/10 10:54:06;;;;;;;23.20;14.57;;;;;;;;;;5025772;28;20033;-76
2022/01/10 10:56:37;;;;;;;25.90;15.98;;;;;;;;;;5017824;28;20520;-77
2022/01/10 10:59:05;;;;;;;19.65;12.60;;;;;;;;;;5022521;28;20041;-77
2022/01/10 11:01:31;;;;;;;19.90;10.48;;;;;;;;;;5030160;28;20067;-76
2022/01/10 11:03:57;;;;;;;20.77;11.45;;;;;;;;;;5024064;28;20095;-76
2022/01/10 11:06:24;;;;;;;17.48;11.43;;;;;;;;;;5026622;28;20033;-76
2022/01/10 11:08:50;;;;;;;17.55;10.98;;;;;;;;;;5018387;28;20060;-77
2022/01/10 11:11:21;;;;;;;15.32;10.02;;;;;;;;;;5022382;28;20038;-76
2022/01/10 11:13:47;;;;;;;17.13;10.32;;;;;;;;;;5026392;28;20783;-76
2022/01/10 11:16:13;;;;;;;15.15;10.27;;;;;;;;;;5024802;28;20040;-77
2022/01/10 11:18:40;;;;;;;14.07;9.43;;;;;;;;;;5022406;28;20069;-77
2022/01/10 11:21:06;;;;;;;15.88;11.40;;;;;;;;;;5025672;28;20037;-76
2022/01/10 11:23:32;;;;;;;13.50;8.32;;;;;;;;;;5016993;28;20053;-77
2022/01/10 11:25:58;;;;;;;17.05;10.32;;;;;;;;;;5021874;28;20058;-77
2022/01/10 11:28:26;;;;;;;14.68;9.18;;;;;;;;;;5025099;28;20045;-77
2022/01/10 11:30:53;;;;;;;12.80;8.20;;;;;;;;;;5019352;28;20068;-77
2022/01/10 11:33:24;;;;;;;15.95;9.80;;;;;;;;;;5027810;28;20041;-77
2022/01/10 11:35:57;;;;;;;17.65;11.95;;;;;;;;;;5026342;28;20029;-77
2022/01/10 11:38:25;;;;;;;20.67;12.40;;;;;;;;;;5030679;28;20590;-76
2022/01/10 11:41:11;;;;;;;20.77;13.77;;;;;;;;;;5024032;28;20029;-77
2022/01/10 11:43:44;;;;;;;18.98;11.80;;;;;;;;;;5020301;28;20080;-77
2022/01/10 11:46:15;;;;;;;17.52;13.07;;;;;;;;;;5021114;28;20052;-77
2022/01/10 11:48:41;;;;;;;17.92;12.52;;;;;;;;;;5021845;28;20580;-77
2022/01/10 11:51:12;;;;;;;15.93;11.38;;;;;;;;;;5022548;28;20465;-76
2022/01/10 11:53:41;;;;;;;19.35;13.32;;;;;;;;;;5020446;28;20099;-76
2022/01/10 11:56:18;;;;;;;19.05;14.27;;;;;;;;;;5022562;28;20380;-76
2022/01/10 11:59:04;;;;;;;15.52;10.68;;;;;;;;;;5022828;28;22034;-76
2022/01/10 12:01:38;;;;;;;13.75;8.77;;;;;;;;;;5023512;28;20037;-76
2022/01/10 12:04:04;;;;;;;11.65;7.78;;;;;;;;;;5021502;28;20030;-76
2022/01/10 12:06:30;;;;;;;11.73;6.65;;;;;;;;;;5023339;28;20022;-76
2022/01/10 12:08:57;;;;;;;11.38;6.93;;;;;;;;;;5023804;28;20722;-76
2022/01/10 12:11:24;;;;;;;13.50;10.25;;;;;;;;;;5020807;28;20034;-77
2022/01/10 12:13:55;;;;;;;16.75;12.43;;;;;;;;;;5011840;28;20045;-76
2022/01/10 12:16:21;;;;;;;20.13;9.95;;;;;;;;;;5028565;28;20026;-76
2022/01/10 12:18:48;;;;;;;13.95;9.57;;;;;;;;;;5022616;28;20047;-76
2022/01/10 12:21:14;;;;;;;19.27;10.60;;;;;;;;;;5025013;28;20037;-76
2022/01/10 12:23:41;;;;;;;14.98;9.90;;;;;;;;;;5027361;28;20060;-76
2022/01/10 12:26:07;;;;;;;12.27;7.93;;;;;;;;;;5028185;28;20025;-76
2022/01/10 12:28:33;;;;;;;10.65;6.80;;;;;;;;;;5029869;28;20659;-76
2022/01/10 12:31:02;;;;;;;11.20;7.22;;;;;;;;;;5028336;28;20121;-77
2022/01/10 12:33:32;;;;;;;10.77;5.75;;;;;;;;;;5024049;28;20559;-75
2022/01/10 12:36:05;;;;;;;8.02;4.57;;;;;;;;;;5018338;28;20072;-76
2022/01/10 12:38:31;;;;;;;7.78;4.00;;;;;;;;;;5026753;28;20033;-77
2022/01/10 12:40:57;;;;;;;8.77;4.10;;;;;;;;;;5030021;28;20033;-76
2022/01/10 12:43:23;;;;;;;8.63;4.20;;;;;;;;;;5033492;28;20069;-76
2022/01/10 12:45:50;;;;;;;9.73;3.50;;;;;;;;;;5027752;28;20092;-76
2022/01/10 12:48:16;;;;;;;7.47;2.90;;;;;;;;;;5033020;28;20033;-76
2022/01/10 12:50:45;;;;;;;5.05;2.17;;;;;;;;;;5029228;28;20037;-76
2022/01/10 12:53:11;;;;;;;8.23;2.78;;;;;;;;;;5026687;28;20037;-76
2022/01/10 12:55:37;;;;;;;8.82;3.08;;;;;;;;;;5026732;28;20696;-75
2022/01/10 12:58:06;;;;;;;9.90;3.63;;;;;;;;;;5023047;28;20063;-76
2022/01/10 13:00:32;;;;;;;4.85;1.92;;;;;;;;;;5027166;28;20033;-76
2022/01/10 13:03:02;;;;;;;3.85;1.70;;;;;;;;;;5030201;28;20482;-76
2022/01/10 13:05:29;;;;;;;4.28;1.50;;;;;;;;;;5028134;28;20033;-76
2022/01/10 13:07:55;;;;;;;4.05;2.13;;;;;;;;;;5027539;28;20104;-76
2022/01/10 13:10:24;;;;;;;4.03;1.63;;;;;;;;;;5031579;28;20550;-76
2022/01/10 13:12:51;;;;;;;5.90;1.73;;;;;;;;;;5025065;28;20025;-76
2022/01/10 13:15:17;;;;;;;5.97;1.92;;;;;;;;;;5029426;28;20041;-76
2022/01/10 13:18:00;;;;;;;5.15;1.60;;;;;;;;;;5031173;28;20033;-76
2022/01/10 13:20:27;;;;;;;4.53;1.42;;;;;;;;;;5029839;28;20041;-76
2022/01/10 13:23:02;;;;;;;9.93;1.92;;;;;;;;;;5024879;28;20041;-77
2022/01/10 13:25:31;;;;;;;4.00;1.63;;;;;;;;;;5022141;28;20040;-76
2022/01/10 13:28:06;;;;;;;4.28;1.63;;;;;;;;;;5024512;28;20040;-76
2022/01/10 13:30:33;;;;;;;5.45;1.50;;;;;;;;;;5025986;28;20025;-76
2022/01/10 13:33:04;;;;;;;5.60;1.50;;;;;;;;;;5029383;28;20029;-76
2022/01/10 13:35:31;;;;;;;4.45;1.50;;;;;;;;;;5023624;28;20504;-76
2022/01/10 13:38:10;;;;;;;4.97;1.50;;;;;;;;;;5027788;28;20040;-76
2022/01/10 13:40:55;;;;;;;5.00;1.58;;;;;;;;;;5024650;28;20037;-76
2022/01/10 13:43:24;;;;;;;7.47;3.28;;;;;;;;;;5024109;28;20555;-76
2022/01/10 13:45:55;;;;;;;9.38;3.83;;;;;;;;;;5032287;28;20033;-76
2022/01/10 13:48:22;;;;;;;7.93;3.00;;;;;;;;;;5017181;28;20049;-76
2022/01/10 13:50:50;;;;;;;9.43;3.25;;;;;;;;;;5032331;28;20029;-76
2022/01/10 13:53:18;;;;;;;7.93;2.80;;;;;;;;;;5030188;28;20060;-75
2022/01/10 13:55:45;;;;;;;9.80;3.60;;;;;;;;;;5032557;28;20037;-75
2022/01/10 13:58:26;;;;;;;6.43;2.40;;;;;;;;;;5033062;28;20766;-76
2022/01/10 14:00:53;;;;;;;9.93;3.80;;;;;;;;;;5030921;28;20392;-76
2022/01/10 14:03:23;;;;;;;11.57;4.18;;;;;;;;;;5032346;28;20388;-77
2022/01/10 14:06:10;;;;;;;12.98;4.68;;;;;;;;;;5027214;28;20034;-75
2022/01/10 14:08:36;;;;;;;7.80;3.70;;;;;;;;;;5017701;28;20493;-76
2022/01/10 14:11:04;;;;;;;8.48;2.50;;;;;;;;;;5022240;28;20065;-76
2022/01/10 14:13:30;;;;;;;9.52;3.45;;;;;;;;;;5026240;28;20128;-76
2022/01/10 14:15:56;;;;;;;9.40;3.90;;;;;;;;;;5018681;28;20033;-76
2022/01/10 14:18:22;;;;;;;8.90;4.95;;;;;;;;;;5004387;28;20041;-76
2022/01/10 14:20:48;;;;;;;10.23;5.60;;;;;;;;;;5026985;28;20037;-76
2022/01/10 14:23:16;;;;;;;10.00;3.28;;;;;;;;;;5016911;28;20108;-76
2022/01/10 14:25:43;;;;;;;6.18;2.13;;;;;;;;;;5005086;28;20026;-76
2022/01/10 14:28:08;;;;;;;7.32;3.53;;;;;;;;;;5008375;28;20034;-76
2022/01/10 14:30:34;;;;;;;6.68;3.20;;;;;;;;;;5007046;28;20045;-76
2022/01/10 14:33:02;;;;;;;6.63;2.55;;;;;;;;;;5009374;28;20460;-76
2022/01/10 14:35:28;;;;;;;10.30;4.15;;;;;;;;;;5007104;28;20444;-76
2022/01/10 14:37:54;;;;;;;5.93;2.78;;;;;;;;;;5016919;28;20026;-76